Time;durP1;ratioP1;P1;durP2;ratioP2;P2;SDS_P1;SDS_P2;PMS_P1;PMS_P2;Temp;Humidity;BMP_temperature;BMP_pressure;BME280_temperature;BME280_humidity;BME280_pressure;Samples;Min_cycle;Max_cycle;Signal;HPM_P1;HPM_P2
2023/09/13 00:01:00;;;;;;;;;48.00;42.00;;;;;24.43;52.85;100538.55;110400;1245;20049;-36
2023/09/13 00:03:34;;;;;;;;;58.00;43.50;;;;;24.44;52.75;100535.69;110442;1244;20140;-36
2023/09/13 00:06:02;;;;;;;;;53.00;43.00;;;;;24.43;52.96;100537.67;110420;1259;20839;-37
2023/09/13 00:08:29;;;;;;;;;58.00;46.00;;;;;24.45;52.82;100534.41;110355;1245;20114;-37
2023/09/13 00:10:56;;;;;;;;;46.00;39.00;;;;;24.43;52.65;100534.49;110394;1259;18744;-37
2023/09/13 00:13:24;;;;;;;;;51.50;45.00;;;;;24.41;52.94;100535.96;110412;1259;20644;-36
2023/09/13 00:15:51;;;;;;;;;53.00;46.00;;;;;24.41;52.67;100529.55;110348;1244;20094;-36
2023/09/13 00:18:19;;;;;;;;;46.00;42.00;;;;;24.41;52.69;100527.79;110363;1246;20165;-37
2023/09/13 00:20:46;;;;;;;;;41.50;38.50;;;;;24.39;52.65;100522.86;110396;1259;20712;-37
2023/09/13 00:23:13;;;;;;;;;45.00;42.00;;;;;24.38;52.69;100520.85;110455;1245;20123;-35
2023/09/13 00:25:41;;;;;;;;;54.67;43.33;;;;;24.37;52.93;100521.52;110399;1245;22146;-38
2023/09/13 00:28:08;;;;;;;;;51.50;42.00;;;;;24.36;52.77;100522.04;109882;1254;607201;-37
2023/09/13 00:30:35;;;;;;;;;49.00;41.00;;;;;24.36;52.62;100518.54;110357;1246;22209;-38
2023/09/13 00:33:03;;;;;;;;;50.00;42.00;;;;;24.32;52.86;100516.07;110376;1259;19003;-38
2023/09/13 00:35:30;;;;;;;;;41.00;39.00;;;;;24.33;52.81;100519.30;110395;1244;20716;-37
2023/09/13 00:37:57;;;;;;;;;41.00;37.00;;;;;24.32;52.88;100519.02;110326;1259;18980;-38
2023/09/13 00:40:25;;;;;;;;;47.33;40.33;;;;;24.35;52.89;100512.73;110413;1245;18715;-38
2023/09/13 00:42:53;;;;;;;;;42.00;40.00;;;;;24.37;52.82;100513.04;110424;1244;20727;-38
2023/09/13 00:45:21;;;;;;;;;43.00;38.00;;;;;24.36;52.85;100516.67;110387;1244;20103;-38
2023/09/13 00:47:48;;;;;;;;;49.00;39.00;;;;;24.36;52.72;100524.39;110470;1259;18789;-38
2023/09/13 00:50:15;;;;;;;;;47.50;39.50;;;;;24.37;52.83;100523.66;110450;1245;20818;-38
2023/09/13 00:52:42;;;;;;;;;41.50;36.50;;;;;24.36;52.86;100524.43;110416;1248;20015;-38
2023/09/13 00:55:10;;;;;;;;;54.00;43.00;;;;;24.32;52.73;100521.38;110420;1259;22363;-38
2023/09/13 00:57:37;;;;;;;;;45.00;39.50;;;;;24.32;52.85;100523.63;110451;1246;22812;-37
2023/09/13 01:00:08;;;;;;;;;44.50;39.50;;;;;24.30;52.81;100524.66;110406;1259;18647;-38
2023/09/13 01:02:38;;;;;;;;;53.00;44.00;;;;;24.29;52.66;100528.23;110391;1244;20212;-37
2023/09/13 01:05:05;;;;;;;;;48.00;39.50;;;;;24.31;52.82;100527.05;110378;1259;19355;-37
2023/09/13 01:07:32;;;;;;;;;49.00;41.00;;;;;24.30;52.74;100526.67;110359;1259;22168;-38
2023/09/13 01:09:59;;;;;;;;;45.00;42.00;;;;;24.26;52.69;100522.89;110379;1246;20214;-36
2023/09/13 01:12:27;;;;;;;;;50.00;43.00;;;;;24.23;52.61;100522.72;110397;1259;19239;-37
2023/09/13 01:14:54;;;;;;;;;52.00;44.50;;;;;24.22;52.52;100520.33;110412;1259;18635;-37
2023/09/13 01:17:22;;;;;;;;;54.00;46.00;;;;;24.20;52.59;100516.23;110385;1245;18761;-36
2023/09/13 01:19:50;;;;;;;;;52.00;43.00;;;;;24.21;52.49;100511.74;110393;1259;19501;-37
2023/09/13 01:22:17;;;;;;;;;51.00;42.00;;;;;24.16;52.63;100510.56;110331;1245;20079;-37
2023/09/13 01:24:44;;;;;;;;;44.50;40.00;;;;;24.12;52.85;100515.50;110361;1253;21446;-38
2023/09/13 01:27:12;;;;;;;;;56.00;42.00;;;;;24.16;52.42;100513.30;110372;1245;19392;-37
2023/09/13 01:29:39;;;;;;;;;46.00;42.00;;;;;24.16;52.44;100512.37;110380;1245;20063;-38
2023/09/13 01:32:06;;;;;;;;;45.00;42.00;;;;;24.10;52.70;100509.35;110380;1253;20396;-37
2023/09/13 01:34:34;;;;;;;;;51.50;43.00;;;;;24.09;52.72;100506.95;110371;1259;22104;-37
2023/09/13 01:37:01;;;;;;;;;;;;;;;24.06;52.76;100505.52;110376;1245;20071;-36
2023/09/13 01:39:28;;;;;;;;;54.67;44.67;;;;;24.06;52.66;100508.16;110394;1245;22078;-37
2023/09/13 01:41:55;;;;;;;;;53.00;45.00;;;;;24.06;52.66;100505.25;110398;1259;20529;-38
2023/09/13 01:44:23;;;;;;;;;54.00;44.00;;;;;24.04;52.61;100505.45;110353;1259;18582;-37
2023/09/13 01:46:50;;;;;;;;;45.00;41.00;;;;;24.03;52.58;100508.20;110362;1245;20350;-35
2023/09/13 01:49:18;;;;;;;;;49.00;43.67;;;;;24.05;52.59;100513.85;110367;1246;20784;-37
2023/09/13 01:51:45;;;;;;;;;52.00;42.00;;;;;24.05;52.53;100509.75;110391;1259;18555;-36
2023/09/13 01:54:13;;;;;;;;;39.67;37.00;;;;;24.07;52.64;100505.41;110335;1259;19923;-37
2023/09/13 01:56:40;;;;;;;;;49.50;40.00;;;;;24.07;52.61;100506.38;110343;1244;21602;-37
2023/09/13 01:59:07;;;;;;;;;43.00;38.00;;;;;24.05;52.51;100500.94;110414;1244;18527;-37
2023/09/13 02:01:34;;;;;;;;;45.00;41.00;;;;;24.04;52.51;100500.15;110435;1259;18750;-37
2023/09/13 02:04:02;;;;;;;;;40.50;40.00;;;;;24.02;52.68;100500.23;110399;1259;19432;-37
2023/09/13 02:06:29;;;;;;;;;42.00;39.00;;;;;24.03;52.61;100501.64;110416;1255;20080;-37
2023/09/13 02:08:56;;;;;;;;;48.67;42.33;;;;;24.02;52.82;100503.73;110397;1253;20177;-37
2023/09/13 02:11:24;;;;;;;;;43.00;41.00;;;;;24.04;52.50;100504.02;110390;1244;20806;-37
2023/09/13 02:13:52;;;;;;;;;44.00;40.00;;;;;24.06;52.62;100506.79;110387;1246;20043;-37
2023/09/13 02:16:19;;;;;;;;;45.00;38.50;;;;;24.06;52.44;100503.55;110343;1245;22745;-37
2023/09/13 02:18:46;;;;;;;;;46.00;40.00;;;;;24.03;52.48;100506.13;110391;1253;20795;-37
2023/09/13 02:21:14;;;;;;;;;39.67;36.33;;;;;24.03;52.53;100508.14;110385;1246;20055;-37
2023/09/13 02:23:42;;;;;;;;;52.67;43.67;;;;;24.04;52.66;100512.13;110377;1244;20934;-38
2023/09/13 02:26:09;;;;;;;;;46.00;39.50;;;;;24.06;52.66;100507.94;110381;1244;20658;-37
2023/09/13 02:28:36;;;;;;;;;41.00;38.00;;;;;24.05;52.45;100505.88;110381;1245;20043;-35
2023/09/13 02:31:04;;;;;;;;;44.00;41.00;;;;;24.04;52.45;100503.09;110341;1253;20081;-38
2023/09/13 02:33:31;;;;;;;;;48.00;42.00;;;;;24.00;52.72;100504.20;110389;1246;20927;-36
2023/09/13 02:35:58;;;;;;;;;51.33;39.33;;;;;24.00;52.47;100505.95;110437;1244;19990;-36
2023/09/13 02:38:26;;;;;;;;;45.50;42.00;;;;;24.03;52.70;100509.27;110449;1246;20153;-36
2023/09/13 02:40:53;;;;;;;;;45.00;41.00;;;;;24.05;52.37;100505.87;110436;1259;19341;-36
2023/09/13 02:43:20;;;;;;;;;38.00;36.00;;;;;24.05;52.19;100505.98;110442;1245;19935;-36
2023/09/13 02:45:47;;;;;;;;;43.00;40.50;;;;;24.02;52.13;100502.80;110433;1253;23487;-36
2023/09/13 02:48:15;;;;;;;;;47.50;40.50;;;;;24.00;52.18;100494.45;110416;1253;20623;-36
2023/09/13 02:50:42;;;;;;;;;53.00;45.00;;;;;23.98;52.18;100491.64;110364;1259;18629;-37
2023/09/13 02:53:10;;;;;;;;;47.00;40.00;;;;;23.93;52.18;100488.29;110373;1246;20087;-38
2023/09/13 02:55:38;;;;;;;;;47.00;41.00;;;;;23.91;52.17;100491.04;110404;1244;20822;-38
2023/09/13 02:58:06;;;;;;;;;42.00;37.50;;;;;23.91;52.28;100495.14;110385;1246;20072;-38
2023/09/13 03:00:33;;;;;;;;;53.50;44.00;;;;;23.90;52.22;100492.60;110385;1244;20296;-38
2023/09/13 03:03:00;;;;;;;;;51.00;43.00;;;;;23.93;52.08;100496.92;110370;1246;19384;-38
2023/09/13 03:05:28;;;;;;;;;41.00;37.00;;;;;23.96;51.97;100491.95;110381;1259;18822;-38
2023/09/13 03:07:56;;;;;;;;;38.50;37.00;;;;;23.98;51.91;100491.27;110361;1259;22000;-38
2023/09/13 03:10:24;;;;;;;;;49.00;43.00;;;;;23.94;51.88;100486.46;110376;1259;19578;-38
2023/09/13 03:12:51;;;;;;;;;46.00;42.00;;;;;23.90;51.84;100487.16;110396;1245;20064;-37
2023/09/13 03:15:18;;;;;;;;;50.33;41.67;;;;;23.96;51.96;100484.24;110373;1259;18728;-38
2023/09/13 03:17:46;;;;;;;;;43.50;41.00;;;;;23.92;52.06;100485.06;110390;1245;20733;-38
2023/09/13 03:20:13;;;;;;;;;46.33;42.67;;;;;23.91;52.10;100483.11;110363;1259;21920;-37
2023/09/13 03:22:40;;;;;;;;;46.00;40.00;;;;;23.91;51.87;100488.36;110376;1246;20134;-36
2023/09/13 03:25:08;;;;;;;;;39.50;37.00;;;;;23.89;51.98;100486.81;110358;1247;21861;-37
2023/09/13 03:27:35;;;;;;;;;46.00;39.50;;;;;23.90;52.17;100485.20;110367;1246;20027;-37
2023/09/13 03:30:02;;;;;;;;;55.00;44.00;;;;;23.87;51.96;100479.66;110382;1246;20242;-37
2023/09/13 03:32:30;;;;;;;;;40.50;36.50;;;;;23.85;51.95;100481.12;110384;1259;20720;-38
2023/09/13 03:34:57;;;;;;;;;44.00;38.50;;;;;23.86;52.04;100477.11;110384;1245;18743;-38
2023/09/13 03:37:25;;;;;;;;;44.00;41.00;;;;;23.82;51.94;100473.29;110365;1245;18790;-37
2023/09/13 03:39:52;;;;;;;;;52.00;41.00;;;;;23.81;52.15;100471.33;110370;1259;21593;-38
2023/09/13 03:42:19;;;;;;;;;46.50;40.00;;;;;23.83;52.11;100472.62;110382;1259;22282;-38
2023/09/13 03:44:47;;;;;;;;;49.00;40.00;;;;;23.77;52.01;100471.02;110362;1244;20197;-38
2023/09/13 03:47:14;;;;;;;;;53.50;44.50;;;;;23.75;52.05;100468.20;110392;1259;22416;-38
2023/09/13 03:49:41;;;;;;;;;52.00;45.00;;;;;23.72;51.79;100468.14;110365;1259;20353;-37
2023/09/13 03:52:09;;;;;;;;;49.00;43.00;;;;;23.68;52.09;100471.38;110385;1259;18741;-38
2023/09/13 03:54:36;;;;;;;;;56.00;44.00;;;;;23.66;52.17;100479.06;110397;1246;20808;-37
2023/09/13 03:57:03;;;;;;;;;51.50;43.50;;;;;23.67;52.02;100480.46;110390;1259;18687;-37
2023/09/13 03:59:31;;;;;;;;;41.00;37.00;;;;;23.68;51.83;100477.33;110402;1246;20190;-37
2023/09/13 04:01:58;;;;;;;;;51.00;40.00;;;;;23.71;51.71;100473.30;110316;1259;21797;-37
2023/09/13 04:04:25;;;;;;;;;46.50;41.00;;;;;23.73;51.84;100472.11;110365;1244;19987;-38
2023/09/13 04:06:52;;;;;;;;;48.00;43.00;;;;;23.71;51.55;100472.69;110377;1245;20103;-37
2023/09/13 04:09:21;;;;;;;;;42.00;39.00;;;;;23.68;51.63;100472.52;110375;1245;20937;-37
2023/09/13 04:11:48;;;;;;;;;44.00;40.00;;;;;23.66;51.48;100471.08;110379;1245;18779;-38
2023/09/13 04:14:16;;;;;;;;;62.00;50.00;;;;;23.63;51.46;100468.11;110420;1259;18896;-38
2023/09/13 04:16:43;;;;;;;;;54.00;43.00;;;;;23.59;51.48;100466.59;110406;1246;21157;-37
2023/09/13 04:19:10;;;;;;;;;60.00;47.00;;;;;23.57;51.27;100466.77;110375;1246;22078;-38
2023/09/13 04:21:38;;;;;;;;;55.50;45.00;;;;;23.59;51.59;100468.55;110395;1254;20057;-37
2023/09/13 04:24:05;;;;;;;;;54.00;45.00;;;;;23.51;51.58;100467.71;110354;1246;22101;-37
2023/09/13 04:26:32;;;;;;;;;55.50;46.00;;;;;23.50;51.81;100469.03;110402;1246;20036;-37
2023/09/13 04:28:59;;;;;;;;;44.50;40.50;;;;;23.51;51.60;100468.59;110470;1245;21315;-35
2023/09/13 04:31:27;;;;;;;;;45.00;42.50;;;;;23.56;51.48;100473.61;110425;1259;19378;-37
2023/09/13 04:33:54;;;;;;;;;46.00;42.00;;;;;23.53;51.62;100471.96;110330;1259;22737;-37
2023/09/13 04:36:21;;;;;;;;;51.50;43.00;;;;;23.49;52.00;100472.83;110420;1259;21294;-37
2023/09/13 04:38:49;;;;;;;;;60.00;48.33;;;;;23.37;52.23;100470.65;110405;1244;22204;-37
2023/09/13 04:41:16;;;;;;;;;65.00;51.00;;;;;22.90;53.66;100465.01;110388;1246;20075;-36
2023/09/13 04:43:43;;;;;;;;;67.00;53.00;;;;;22.90;53.76;100463.81;110345;1246;22528;-37
2023/09/13 04:46:11;;;;;;;;;62.00;49.00;;;;;22.81;54.10;100467.84;110431;1246;20778;-37
2023/09/13 04:48:38;;;;;;;;;56.00;48.00;;;;;22.84;54.52;100467.70;110385;1259;18624;-37
2023/09/13 04:51:05;;;;;;;;;56.00;47.00;;;;;22.76;55.20;100465.54;110332;1245;20198;-37
2023/09/13 04:53:33;;;;;;;;;45.00;42.00;;;;;22.96;54.85;100467.18;110318;1259;19274;-37
2023/09/13 04:56:01;;;;;;;;;51.00;44.00;;;;;23.19;54.65;100464.77;110343;1259;18610;-37
2023/09/13 04:58:29;;;;;;;;;52.00;44.33;;;;;23.31;54.62;100467.83;110381;1259;22216;-36
2023/09/13 05:00:56;;;;;;;;;61.00;50.00;;;;;23.33;55.48;100472.89;110406;1245;20955;-37
2023/09/13 05:03:23;;;;;;;;;45.00;43.00;;;;;23.25;55.67;100474.63;110387;1253;19884;-37
2023/09/13 05:05:51;;;;;;;;;45.00;37.00;;;;;23.35;57.46;100481.71;110383;1245;20210;-36
2023/09/13 05:08:18;;;;;;;;;38.50;35.50;;;;;23.52;56.97;100480.17;110366;1245;21912;-36
2023/09/13 05:10:45;;;;;;;;;36.00;35.00;;;;;23.72;56.69;100476.02;110374;1259;18649;-35
2023/09/13 05:13:13;;;;;;;;;194.00;137.00;;;;;23.83;56.34;100469.17;110379;1245;20122;-36
2023/09/13 05:15:40;;;;;;;;;332.00;239.50;;;;;23.93;55.86;100472.58;110370;1245;20695;-35
2023/09/13 05:18:07;;;;;;;;;313.00;226.50;;;;;24.03;55.70;100479.47;110374;1245;20388;-35
2023/09/13 05:20:35;;;;;;;;;143.00;107.00;;;;;24.08;54.93;100467.61;110375;1246;20175;-36
2023/09/13 05:23:02;;;;;;;;;68.00;54.00;;;;;23.54;54.03;100468.73;110380;1259;19346;-36
2023/09/13 05:25:29;;;;;;;;;72.00;56.00;;;;;22.64;54.87;100466.20;110366;1259;19034;-36
2023/09/13 08:01:22;;;;;;;;;26.50;24.00;;;;;24.57;52.10;100501.02;106884;1301;18678;-38
2023/09/13 08:03:48;;;;;;;;;23.00;23.00;;;;;24.61;51.81;100496.02;108605;1275;18138;-38
2023/09/13 08:06:14;;;;;;;;;25.50;21.50;;;;;24.62;52.07;100495.61;108631;1260;22922;-38
2023/09/13 08:08:40;;;;;;;;;24.00;21.00;;;;;24.63;52.09;100498.77;108624;1260;19797;-39
2023/09/13 08:11:06;;;;;;;;;21.00;21.00;;;;;24.64;52.05;100500.18;108601;1275;19185;-39
2023/09/13 08:13:32;;;;;;;;;28.00;22.00;;;;;24.67;52.02;100499.95;108603;1260;19626;-39
2023/09/13 08:15:58;;;;;;;;;21.00;18.00;;;;;24.70;51.78;100500.70;108611;1259;19788;-38
2023/09/13 08:18:24;;;;;;;;;16.00;14.00;;;;;24.71;51.93;100499.43;108660;1275;17928;-38
2023/09/13 08:20:50;;;;;;;;;20.00;18.00;;;;;24.66;52.11;100496.46;108621;1275;20486;-38
2023/09/13 08:23:16;;;;;;;;;16.00;16.00;;;;;24.64;52.22;100493.60;108605;1275;21982;-37
2023/09/13 08:25:42;;;;;;;;;16.00;16.00;;;;;24.62;52.15;100479.73;108650;1260;19666;-38
2023/09/13 08:28:08;;;;;;;;;19.00;16.50;;;;;24.63;52.23;100478.73;108597;1260;19540;-39
2023/09/13 08:30:35;;;;;;;;;15.33;14.00;;;;;24.66;52.10;100478.38;108614;1275;20453;-39
2023/09/13 08:33:00;;;;;;;;;20.00;18.00;;;;;24.70;52.01;100480.08;108642;1260;19273;-39
2023/09/13 08:35:26;;;;;;;;;16.00;16.00;;;;;24.69;52.19;100475.27;108644;1275;19554;-39
2023/09/13 08:37:52;;;;;;;;;17.00;14.50;;;;;24.72;52.12;100470.66;108617;1260;22261;-38
2023/09/13 08:40:18;;;;;;;;;16.00;14.00;;;;;24.69;52.25;100471.70;108634;1261;19314;-38
2023/09/13 08:42:44;;;;;;;;;14.00;14.00;;;;;24.75;52.31;100470.15;108614;1276;19477;-38
2023/09/13 08:45:10;;;;;;;;;16.00;14.00;;;;;24.74;52.48;100469.70;108658;1275;18535;-38
2023/09/13 08:47:38;;;;;;;;;16.00;14.00;;;;;24.75;52.58;100472.15;109096;1257;19281;-39
2023/09/13 08:50:04;;;;;;;;;14.00;12.00;;;;;24.72;52.94;100480.97;109075;1256;22131;-39
2023/09/13 08:52:30;;;;;;;;;15.00;14.00;;;;;24.70;53.45;100483.46;109076;1256;23330;-37
2023/09/13 08:54:56;;;;;;;;;15.00;14.00;;;;;24.73;53.55;100484.38;109092;1266;20706;-37
2023/09/13 08:57:22;;;;;;;;;15.00;14.00;;;;;24.75;53.92;100476.24;109101;1256;18904;-38
2023/09/13 08:59:48;;;;;;;;;13.00;13.00;;;;;24.78;53.98;100486.15;109056;1272;19091;-38
2023/09/13 09:02:14;;;;;;;;;12.00;11.00;;;;;24.81;53.90;100492.28;109091;1257;19466;-38
2023/09/13 09:04:39;;;;;;;;;13.50;12.50;;;;;24.82;53.89;100491.39;109063;1272;18130;-38
2023/09/13 09:07:06;;;;;;;;;14.00;14.00;;;;;24.84;53.76;100486.35;109092;1257;22091;-38
2023/09/13 09:09:32;;;;;;;;;10.00;10.00;;;;;24.87;53.93;100485.16;109064;1272;19654;-39
2023/09/13 09:11:58;;;;;;;;;10.00;9.50;;;;;24.88;53.79;100479.55;109088;1264;20191;-39
2023/09/13 09:14:24;;;;;;;;;14.00;13.00;;;;;24.92;53.58;100479.70;108954;1259;20098;-39
2023/09/13 09:16:50;;;;;;;;;14.00;12.50;;;;;24.90;53.60;100479.62;109175;1272;18058;-38
2023/09/13 09:19:16;;;;;;;;;12.00;10.50;;;;;24.92;53.79;100478.16;109065;1272;18168;-38
2023/09/13 09:21:42;;;;;;;;;11.00;11.00;;;;;24.92;53.78;100478.86;109076;1272;18458;-38
2023/09/13 09:24:07;;;;;;;;;10.50;9.50;;;;;24.92;53.64;100474.64;109090;1256;19242;-37
2023/09/13 09:26:34;;;;;;;;;10.00;10.00;;;;;24.88;54.08;100472.30;109041;1256;22581;-38
2023/09/13 09:29:00;;;;;;;;;13.00;11.00;;;;;24.90;54.10;100463.02;109046;1263;22461;-36
2023/09/13 09:31:26;;;;;;;;;7.00;7.00;;;;;24.93;53.87;100461.14;109073;1256;21710;-39
2023/09/13 09:33:52;;;;;;;;;9.00;9.00;;;;;24.92;53.97;100453.77;109050;1257;19568;-38
2023/09/13 09:36:18;;;;;;;;;11.00;10.00;;;;;24.92;53.71;100451.85;109113;1256;22930;-38
2023/09/13 09:38:44;;;;;;;;;11.00;10.00;;;;;24.94;53.92;100455.04;109039;1257;19312;-38
2023/09/13 09:41:09;;;;;;;;;11.50;10.50;;;;;24.96;53.79;100448.61;109080;1257;19540;-38
2023/09/13 09:43:36;;;;;;;;;9.00;8.00;;;;;24.95;53.95;100443.80;109199;1256;19791;-37
2023/09/13 09:46:02;;;;;;;;;9.50;9.00;;;;;24.95;53.64;100441.76;109191;1257;21602;-37
2023/09/13 09:48:28;;;;;;;;;8.00;8.00;;;;;24.96;53.86;100437.92;109113;1272;21847;-38
2023/09/13 09:50:54;;;;;;;;;10.00;9.00;;;;;24.97;53.75;100433.96;109065;1256;20268;-38
2023/09/13 09:53:20;;;;;;;;;9.00;9.00;;;;;24.95;53.73;100424.79;109091;1272;17821;-37
2023/09/13 09:55:46;;;;;;;;;7.00;6.00;;;;;24.92;53.95;100416.67;109108;1257;19510;-37
2023/09/13 09:58:12;;;;;;;;;7.00;6.00;;;;;24.97;53.94;100414.45;109040;1257;19406;-37
2023/09/13 10:00:38;;;;;;;;;9.00;7.00;;;;;24.97;53.91;100411.66;109165;1257;18966;-37
2023/09/13 10:03:04;;;;;;;;;6.00;6.00;;;;;24.93;53.99;100407.11;109119;1272;19467;-38
2023/09/13 10:05:30;;;;;;;;;6.00;6.00;;;;;24.94;53.81;100406.59;109084;1265;19540;-37
2023/09/13 10:07:56;;;;;;;;;7.00;6.00;;;;;24.95;53.89;100401.82;109134;1256;17551;-38
2023/09/13 10:10:22;;;;;;;;;7.00;7.00;;;;;24.95;53.93;100398.58;109088;1272;19418;-37
2023/09/13 10:12:50;;;;;;;;;7.00;7.00;;;;;24.98;53.88;100399.20;109009;1256;22674;-37
2023/09/13 10:15:17;;;;;;;;;10.50;8.00;;;;;25.00;53.56;100388.20;109099;1264;19104;-38
2023/09/13 10:17:43;;;;;;;;;10.00;9.50;;;;;24.98;53.65;100380.61;109114;1256;19880;-38
2023/09/13 10:20:09;;;;;;;;;10.00;9.00;;;;;24.90;53.92;100369.69;109083;1272;19159;-38
2023/09/13 10:22:35;;;;;;;;;10.00;10.00;;;;;24.93;53.96;100365.02;109078;1266;19368;-38
2023/09/13 10:25:03;;;;;;;;;9.00;7.00;;;;;24.91;54.29;100366.84;109069;1257;21962;-38
2023/09/13 10:27:29;;;;;;;;;9.00;7.00;;;;;24.91;54.45;100374.44;109078;1272;20233;-38
2023/09/13 10:29:55;;;;;;;;;10.00;9.50;;;;;24.90;54.32;100375.89;108947;1272;17848;-38
2023/09/13 10:32:22;;;;;;;;;7.00;6.50;;;;;24.94;54.29;100374.48;108844;1272;22185;-38
2023/09/13 10:34:48;;;;;;;;;13.00;10.50;;;;;24.96;54.10;100373.48;108863;1272;21860;-38
2023/09/13 10:37:15;;;;;;;;;7.00;7.00;;;;;24.95;54.31;100368.98;108901;1266;17965;-37
2023/09/13 10:39:41;;;;;;;;;10.00;9.00;;;;;25.00;54.05;100369.77;108904;1272;18679;-39
2023/09/13 10:42:07;;;;;;;;;10.00;9.00;;;;;24.99;53.86;100365.24;108884;1257;19510;-39
2023/09/13 10:44:33;;;;;;;;;10.00;10.00;;;;;25.04;53.69;100366.08;110208;1256;19288;-38
2023/09/13 10:46:59;;;;;;;;;9.00;9.00;;;;;25.02;53.92;100367.39;110226;1251;19741;-38
2023/09/13 10:49:25;;;;;;;;;14.00;13.00;;;;;25.02;53.69;100364.08;110192;1264;19160;-39
2023/09/13 10:51:51;;;;;;;;;10.00;9.50;;;;;24.98;53.64;100367.36;110214;1250;19289;-39
2023/09/13 10:54:17;;;;;;;;;14.00;13.00;;;;;24.97;53.89;100372.46;110207;1264;18203;-39
2023/09/13 10:56:43;;;;;;;;;17.00;15.00;;;;;24.98;53.47;100372.00;110239;1250;19826;-37
2023/09/13 10:59:09;;;;;;;;;;;;;;;25.06;52.46;100375.46;110184;1250;19321;-38
2023/09/13 11:01:35;;;;;;;;;18.00;17.00;;;;;25.20;51.52;100371.75;110238;1251;20142;-35
2023/09/13 11:04:01;;;;;;;;;26.50;22.50;;;;;25.22;51.41;100374.92;110201;1265;22070;-38
2023/09/13 11:06:27;;;;;;;;;26.00;23.00;;;;;25.27;50.61;100374.48;110222;1250;19273;-39
2023/09/13 11:08:53;;;;;;;;;30.50;27.50;;;;;25.45;49.72;100378.35;110256;1250;19750;-38
2023/09/13 11:11:19;;;;;;;;;30.00;27.00;;;;;25.39;49.59;100382.42;110246;1247;18379;-39
2023/09/13 11:13:45;;;;;;;;;32.50;28.00;;;;;25.50;49.18;100382.84;110190;1257;22187;-38
2023/09/13 11:16:11;;;;;;;;;34.00;30.00;;;;;25.48;49.20;100382.15;110228;1247;19724;-38
2023/09/13 11:18:37;;;;;;;;;30.00;27.00;;;;;25.39;49.65;100378.81;110217;1251;19972;-39
2023/09/13 11:21:06;;;;;;;;;30.00;28.00;;;;;25.26;50.10;100382.95;110225;1250;19364;-39
2023/09/13 11:23:32;;;;;;;;;32.00;30.00;;;;;25.31;50.15;100386.69;110256;1247;20008;-39
2023/09/13 11:25:58;;;;;;;;;32.00;31.00;;;;;25.34;49.84;100386.01;110240;1250;19831;-41
2023/09/13 11:28:24;;;;;;;;;34.00;32.00;;;;;25.42;49.54;100389.81;110213;1263;18081;-38
2023/09/13 11:30:50;;;;;;;;;35.50;31.50;;;;;25.41;49.56;100397.29;110192;1264;21675;-38
2023/09/13 11:33:16;;;;;;;;;33.00;32.00;;;;;25.45;49.46;100396.06;110209;1251;20090;-38
2023/09/13 11:35:42;;;;;;;;;36.00;33.00;;;;;25.48;49.09;100396.05;110247;1249;20711;-37
2023/09/13 11:38:08;;;;;;;;;36.00;33.00;;;;;25.40;49.22;100389.70;110251;1250;19957;-38
2023/09/13 11:40:34;;;;;;;;;36.00;35.00;;;;;25.45;48.83;100391.70;110136;1265;19306;-38
2023/09/13 11:43:00;;;;;;;;;30.00;27.50;;;;;25.44;48.98;100397.28;110197;1257;22050;-37
2023/09/13 11:45:26;;;;;;;;;35.50;32.00;;;;;25.43;49.06;100396.27;110195;1249;19429;-38
2023/09/13 11:47:52;;;;;;;;;31.00;30.00;;;;;25.44;48.85;100400.96;110218;1264;19677;-37
2023/09/13 11:50:18;;;;;;;;;34.50;30.50;;;;;25.41;49.07;100400.64;110269;1251;19551;-38
2023/09/13 11:52:44;;;;;;;;;34.50;32.00;;;;;25.41;49.12;100395.39;110293;1251;19716;-37
2023/09/13 11:55:10;;;;;;;;;30.67;28.33;;;;;25.41;49.11;100394.06;110274;1259;19904;-37
2023/09/13 11:57:36;;;;;;;;;31.00;30.00;;;;;25.37;49.43;100396.29;110150;1250;17859;-37
2023/09/13 12:00:04;;;;;;;;;32.00;31.00;;;;;25.36;49.55;100393.19;110197;1247;20046;-37
2023/09/13 12:02:30;;;;;;;;;33.00;31.50;;;;;25.35;49.69;100386.37;110317;1251;21294;-36
2023/09/13 12:04:56;;;;;;;;;33.00;31.00;;;;;25.46;49.73;100396.25;110271;1248;19356;-37
2023/09/13 12:07:23;;;;;;;;;43.00;39.00;;;;;25.43;49.94;100397.86;110266;1250;19522;-39
2023/09/13 12:09:50;;;;;;;;;36.33;33.67;;;;;25.35;50.42;100405.83;110199;1250;20037;-37
2023/09/13 12:12:16;;;;;;;;;36.00;32.00;;;;;25.31;51.07;100402.79;110216;1250;21852;-37
2023/09/13 12:14:42;;;;;;;;;36.50;33.00;;;;;25.35;51.40;100402.11;110229;1247;22114;-38
2023/09/13 12:17:08;;;;;;;;;38.00;33.00;;;;;25.37;51.69;100403.64;110263;1250;19799;-38
2023/09/13 12:19:35;;;;;;;;;42.50;38.50;;;;;25.41;52.15;100402.73;110224;1250;19551;-39
2023/09/13 12:22:01;;;;;;;;;34.67;31.33;;;;;25.37;52.59;100404.90;110245;1250;22114;-39
2023/09/13 12:24:27;;;;;;;;;44.00;39.00;;;;;25.39;53.29;100405.52;110246;1264;19877;-39
2023/09/13 12:26:53;;;;;;;;;39.00;35.00;;;;;25.40;53.78;100413.34;110207;1247;19349;-38
2023/09/13 12:29:19;;;;;;;;;36.67;32.00;;;;;25.36;54.42;100420.66;110222;1264;18271;-37
2023/09/13 12:31:45;;;;;;;;;41.33;37.00;;;;;25.30;55.10;100418.00;110246;1250;19834;-39
2023/09/13 12:34:11;;;;;;;;;42.00;39.00;;;;;25.24;55.91;100417.66;110301;1263;17955;-38
2023/09/13 12:36:36;;;;;;;;;44.00;36.00;;;;;25.22;56.73;100413.37;110286;1264;18298;-39
2023/09/13 12:39:05;;;;;;;;;40.50;39.00;;;;;25.21;56.96;100403.79;110246;1249;21696;-37
2023/09/13 12:41:32;;;;;;;;;43.00;39.00;;;;;25.18;57.38;100398.92;110321;1250;19608;-37
2023/09/13 12:43:58;;;;;;;;;42.67;38.67;;;;;25.17;57.58;100391.59;110309;1249;20156;-37
2023/09/13 12:46:24;;;;;;;;;44.00;39.00;;;;;25.22;57.99;100394.41;110301;1250;21711;-38
2023/09/13 12:48:50;;;;;;;;;45.00;39.00;;;;;25.23;57.99;100394.97;110295;1257;21885;-38
2023/09/13 12:51:16;;;;;;;;;41.00;38.00;;;;;25.25;58.06;100397.23;110249;1250;19969;-37
2023/09/13 12:53:43;;;;;;;;;39.50;36.00;;;;;25.30;58.32;100393.16;110179;1264;18378;-37
2023/09/13 12:56:09;;;;;;;;;38.67;36.33;;;;;25.34;58.24;100396.10;110260;1250;19607;-37
2023/09/13 12:58:35;;;;;;;;;45.50;39.00;;;;;25.33;58.24;100394.48;110217;1264;20204;-37
2023/09/13 13:01:03;;;;;;;;;39.00;36.50;;;;;25.31;57.83;100395.69;110272;1250;19827;-38
2023/09/13 13:03:29;;;;;;;;;41.50;36.00;;;;;25.36;57.80;100396.60;110222;1264;21989;-37
2023/09/13 13:05:55;;;;;;;;;36.00;34.00;;;;;25.37;57.74;100398.77;110230;1257;19959;-38
2023/09/13 13:08:21;;;;;;;;;35.00;32.00;;;;;25.37;57.61;100399.16;110241;1250;19887;-38
2023/09/13 13:10:47;;;;;;;;;35.50;33.00;;;;;25.32;57.59;100398.08;110258;1247;19350;-38
2023/09/13 13:13:13;;;;;;;;;45.00;38.50;;;;;25.37;57.48;100392.84;110216;1264;19178;-37
2023/09/13 13:15:39;;;;;;;;;37.00;33.00;;;;;25.38;57.47;100395.56;110275;1256;22699;-38
2023/09/13 13:18:05;;;;;;;;;37.00;32.00;;;;;25.39;57.45;100394.60;110187;1256;18793;-38
2023/09/13 13:20:31;;;;;;;;;39.50;34.50;;;;;25.37;57.23;100395.96;110149;1250;19695;-37
2023/09/13 13:22:57;;;;;;;;;39.00;35.50;;;;;25.38;57.45;100393.48;110242;1247;20054;-38
2023/09/13 13:25:23;;;;;;;;;39.00;32.00;;;;;25.38;57.99;100392.23;110178;1264;22174;-37
2023/09/13 13:27:49;;;;;;;;;31.00;30.00;;;;;25.39;57.60;100393.73;110239;1250;19810;-37
2023/09/13 13:30:15;;;;;;;;;36.00;33.00;;;;;25.41;57.56;100395.97;110284;1265;18350;-37
2023/09/13 13:32:41;;;;;;;;;35.00;32.00;;;;;25.42;57.50;100393.59;110205;1250;19314;-37
2023/09/13 13:35:07;;;;;;;;;30.00;30.00;;;;;25.45;57.01;100395.06;110220;1251;22188;-37